Time;durP1;ratioP1;P1;durP2;ratioP2;P2;SDS_P1;SDS_P2;PMS_P1;PMS_P2;Temp;Humidity;BMP_temperature;BMP_pressure;BME280_temperature;BME280_humidity;BME280_pressure;Samples;Min_cycle;Max_cycle;Signal;HPM_P1;HPM_P2
2021/09/18 00:01:19;;;;;;;51.97;31.88;;;13.90;99.90;;;;;;5019339;28;20022;-61
2021/09/18 00:03:44;;;;;;;51.45;33.08;;;13.90;99.90;;;;;;5012247;28;20053;-60
2021/09/18 00:06:10;;;;;;;52.33;34.70;;;13.90;99.90;;;;;;5011323;28;20032;-62
2021/09/18 00:08:36;;;;;;;54.22;35.10;;;13.80;99.90;;;;;;5015078;28;20030;-62
2021/09/18 00:11:02;;;;;;;46.22;29.75;;;13.90;99.90;;;;;;5017842;28;20022;-58
2021/09/18 00:13:27;;;;;;;44.08;28.73;;;13.90;99.90;;;;;;5015646;28;20030;-59
2021/09/18 00:15:53;;;;;;;39.20;27.90;;;14.00;99.90;;;;;;5018225;28;20034;-61
2021/09/18 00:18:19;;;;;;;48.50;29.38;;;14.00;99.90;;;;;;5014623;28;20104;-57
2021/09/18 00:20:44;;;;;;;48.53;29.08;;;13.90;99.90;;;;;;5015282;28;21690;-58
2021/09/18 00:23:10;;;;;;;42.25;29.45;;;13.90;99.90;;;;;;5011953;28;20029;-57
2021/09/18 00:25:35;;;;;;;41.50;30.10;;;13.80;99.90;;;;;;5011536;28;20520;-60
2021/09/18 00:28:01;;;;;;;46.03;30.73;;;13.70;99.90;;;;;;5015141;28;20080;-60
2021/09/18 00:30:27;;;;;;;45.50;30.42;;;13.70;99.90;;;;;;5011489;28;20025;-59
2021/09/18 00:32:52;;;;;;;54.15;31.58;;;13.70;99.90;;;;;;5014856;28;20038;-59
2021/09/18 00:35:18;;;;;;;47.72;31.17;;;13.70;99.90;;;;;;5014467;28;20099;-59
2021/09/18 00:37:43;;;;;;;40.80;29.13;;;13.60;99.90;;;;;;5011215;28;20152;-61
2021/09/18 00:40:09;;;;;;;46.40;31.63;;;13.50;99.90;;;;;;5014908;28;20025;-61
2021/09/18 00:42:35;;;;;;;43.97;29.02;;;13.50;99.90;;;;;;5015345;28;20510;-60
2021/09/18 00:45:01;;;;;;;42.80;28.67;;;13.50;99.90;;;;;;5009919;28;20056;-60
2021/09/18 00:47:26;;;;;;;38.60;26.10;;;13.50;99.90;;;;;;5013979;28;20029;-60
2021/09/18 00:49:52;;;;;;;50.05;27.15;;;13.60;99.90;;;;;;5010283;28;20038;-59
2021/09/18 00:52:19;;;;;;;37.15;25.38;;;13.60;99.90;;;;;;5016417;28;20034;-57
2021/09/18 00:54:51;;;;;;;36.47;25.67;;;13.60;99.90;;;;;;5010422;28;20402;-60
2021/09/18 00:57:17;;;;;;;43.75;28.83;;;13.60;99.90;;;;;;5009496;28;20025;-62
2021/09/18 00:59:43;;;;;;;41.42;25.40;;;13.70;99.90;;;;;;5015646;28;20056;-61
2021/09/18 01:02:09;;;;;;;34.38;24.92;;;13.70;99.90;;;;;;5016757;28;20481;-61
2021/09/18 01:04:36;;;;;;;36.10;25.70;;;13.70;99.90;;;;;;5013093;28;20022;-61
2021/09/18 01:07:02;;;;;;;36.15;25.10;;;13.70;99.90;;;;;;5009429;28;20034;-62
2021/09/18 01:09:28;;;;;;;36.45;23.80;;;13.60;99.90;;;;;;5016155;28;20504;-62
2021/09/18 01:11:54;;;;;;;37.13;25.63;;;13.50;99.90;;;;;;5015827;28;20029;-62
2021/09/18 01:14:19;;;;;;;40.20;25.67;;;13.50;99.90;;;;;;5014067;28;20026;-62
2021/09/18 01:16:45;;;;;;;36.17;25.00;;;13.40;99.90;;;;;;5011768;28;20472;-62
2021/09/18 01:19:11;;;;;;;39.72;25.90;;;13.40;99.90;;;;;;5014751;28;20036;-62
2021/09/18 01:21:37;;;;;;;38.35;24.33;;;13.40;99.90;;;;;;5015273;28;20030;-62
2021/09/18 01:24:02;;;;;;;33.53;23.48;;;13.50;99.90;;;;;;5016002;28;20026;-62
2021/09/18 01:26:33;;;;;;;37.50;26.13;;;13.40;99.90;;;;;;5013153;28;20091;-61
2021/09/18 01:29:00;;;;;;;36.30;23.65;;;13.40;99.90;;;;;;5014417;28;20056;-62
2021/09/18 01:31:28;;;;;;;37.65;25.98;;;13.30;99.90;;;;;;5018147;28;20037;-62
2021/09/18 01:33:53;;;;;;;37.83;24.85;;;13.30;99.90;;;;;;5015025;28;20086;-58
2021/09/18 01:36:19;;;;;;;41.55;25.95;;;13.30;99.90;;;;;;5010416;28;20030;-61
2021/09/18 01:38:45;;;;;;;38.47;24.63;;;13.20;99.90;;;;;;5014486;28;20027;-62
2021/09/18 01:41:10;;;;;;;38.63;25.45;;;13.10;99.90;;;;;;4998461;28;20420;-61
2021/09/18 01:43:36;;;;;;;48.28;26.95;;;13.10;99.90;;;;;;5013652;28;20057;-61
2021/09/18 01:46:02;;;;;;;39.25;24.67;;;13.00;99.90;;;;;;5011828;28;20056;-60
2021/09/18 01:48:27;;;;;;;41.72;25.73;;;13.00;99.90;;;;;;4999064;28;20045;-59
2021/09/18 01:50:56;;;;;;;38.30;25.83;;;13.00;99.90;;;;;;5016503;28;20041;-57
2021/09/18 01:53:24;;;;;;;38.20;26.10;;;13.00;99.90;;;;;;5014644;28;20029;-61
2021/09/18 01:55:50;;;;;;;41.17;27.23;;;13.00;99.90;;;;;;5010155;28;20029;-62
2021/09/18 01:58:17;;;;;;;40.95;26.13;;;12.90;99.90;;;;;;5013194;28;20034;-63
2021/09/18 02:00:46;;;;;;;34.40;24.25;;;13.00;99.90;;;;;;5017972;28;20120;-60
2021/09/18 02:03:12;;;;;;;38.92;23.30;;;13.10;99.90;;;;;;5012294;28;20033;-61
2021/09/18 02:05:37;;;;;;;28.38;20.35;;;13.20;99.90;;;;;;5013920;28;20017;-63
2021/09/18 02:08:03;;;;;;;31.67;20.98;;;13.20;99.90;;;;;;5012167;28;20033;-61
2021/09/18 02:10:30;;;;;;;30.15;20.90;;;13.30;99.90;;;;;;5013894;28;20029;-60
2021/09/18 02:12:57;;;;;;;32.50;21.35;;;13.20;99.90;;;;;;5041026;23;20098;-58
2021/09/18 02:15:24;;;;;;;32.30;22.20;;;13.30;99.90;;;;;;5031622;28;20095;-62
2021/09/18 02:17:50;;;;;;;34.95;22.83;;;13.20;99.90;;;;;;5032126;28;20022;-61
2021/09/18 02:20:19;;;;;;;34.90;24.27;;;13.20;99.90;;;;;;5032371;28;20142;-61
2021/09/18 02:22:44;;;;;;;36.72;24.58;;;13.20;99.90;;;;;;5037037;28;20600;-62
2021/09/18 02:25:11;;;;;;;34.53;24.63;;;13.10;99.90;;;;;;5023143;28;20113;-62
2021/09/18 02:27:38;;;;;;;39.97;26.00;;;13.00;99.90;;;;;;5021064;28;20049;-59
2021/09/18 02:30:06;;;;;;;38.58;24.30;;;13.00;99.90;;;;;;5024106;28;20613;-60
2021/09/18 02:32:34;;;;;;;43.25;25.70;;;13.00;99.90;;;;;;5021974;28;20104;-59
2021/09/18 02:35:02;;;;;;;45.47;26.45;;;13.00;99.90;;;;;;5024018;28;20041;-60
2021/09/18 02:37:28;;;;;;;39.67;26.20;;;12.90;99.90;;;;;;5021163;28;20036;-61
2021/09/18 02:39:53;;;;;;;39.28;25.42;;;12.90;99.90;;;;;;5018015;28;20393;-63
2021/09/18 02:42:19;;;;;;;37.17;25.33;;;12.90;99.90;;;;;;5023145;28;20021;-54
2021/09/18 02:44:44;;;;;;;38.92;26.45;;;12.90;99.90;;;;;;5020954;28;20021;-58
2021/09/18 02:47:10;;;;;;;44.58;28.33;;;12.80;99.90;;;;;;5021949;28;20033;-59
2021/09/18 02:49:35;;;;;;;49.05;27.60;;;12.80;99.90;;;;;;5023247;28;20034;-60
2021/09/18 02:52:01;;;;;;;37.22;26.05;;;12.80;99.90;;;;;;5025273;28;20037;-59
2021/09/18 02:54:26;;;;;;;48.45;27.80;;;12.90;99.90;;;;;;5019705;28;20033;-61
2021/09/18 02:56:52;;;;;;;42.50;27.65;;;12.80;99.90;;;;;;5020834;28;20490;-58
2021/09/18 02:59:17;;;;;;;44.47;27.20;;;12.80;99.90;;;;;;5022533;28;20037;-59
2021/09/18 03:01:43;;;;;;;40.40;26.40;;;12.80;99.90;;;;;;5022222;28;20067;-62
2021/09/18 03:04:08;;;;;;;43.45;26.27;;;12.70;99.90;;;;;;5022003;28;20041;-60
2021/09/18 03:06:34;;;;;;;47.10;27.23;;;12.70;99.90;;;;;;5020699;28;20026;-59
2021/09/18 03:08:59;;;;;;;44.28;28.48;;;12.60;99.90;;;;;;5005965;28;20025;-60
2021/09/18 03:11:25;;;;;;;43.95;27.33;;;12.60;99.90;;;;;;5022066;28;20033;-60
2021/09/18 03:13:51;;;;;;;41.78;25.88;;;12.50;99.90;;;;;;5021002;28;20489;-62
2021/09/18 03:16:17;;;;;;;43.47;26.45;;;12.50;99.90;;;;;;5020679;28;20036;-60
2021/09/18 03:18:43;;;;;;;41.42;25.83;;;12.60;99.90;;;;;;5019501;28;20021;-56
2021/09/18 03:21:08;;;;;;;43.47;25.85;;;12.50;99.90;;;;;;5021403;28;20485;-61
2021/09/18 03:23:34;;;;;;;42.35;26.15;;;12.50;99.90;;;;;;5021461;28;20038;-61
2021/09/18 03:26:00;;;;;;;45.67;26.88;;;12.50;99.90;;;;;;5020223;28;20028;-61
2021/09/18 03:28:26;;;;;;;44.17;25.83;;;12.50;99.90;;;;;;5019214;28;20562;-61
2021/09/18 03:30:51;;;;;;;40.35;24.95;;;12.50;99.90;;;;;;5018943;28;20592;-60
2021/09/18 03:33:17;;;;;;;39.00;23.17;;;12.60;99.90;;;;;;5020305;28;20022;-60
2021/09/18 03:35:42;;;;;;;36.42;23.27;;;12.60;99.90;;;;;;5019757;28;20482;-58
2021/09/18 03:38:11;;;;;;;36.40;22.23;;;12.60;99.90;;;;;;5026241;28;20087;-62
2021/09/18 03:40:37;;;;;;;39.85;24.42;;;12.60;99.90;;;;;;5025709;28;20041;-60
2021/09/18 03:43:03;;;;;;;32.75;23.90;;;12.60;99.90;;;;;;5021075;28;20025;-59
2021/09/18 03:45:29;;;;;;;42.05;24.00;;;12.60;99.90;;;;;;5019599;28;20492;-61
2021/09/18 03:47:54;;;;;;;40.63;24.27;;;12.60;99.90;;;;;;5021393;28;20048;-60
2021/09/18 03:50:20;;;;;;;37.97;24.80;;;12.60;99.90;;;;;;5024169;28;20078;-56
2021/09/18 03:52:45;;;;;;;37.42;24.25;;;12.60;99.90;;;;;;5022751;28;20397;-60
2021/09/18 03:55:11;;;;;;;41.13;23.83;;;12.50;99.90;;;;;;5022047;28;20460;-57
2021/09/18 03:57:37;;;;;;;35.63;23.25;;;12.40;99.90;;;;;;5023519;28;20516;-57
2021/09/18 04:00:04;;;;;;;36.92;23.60;;;12.40;99.90;;;;;;5022338;28;20038;-60
2021/09/18 04:02:29;;;;;;;41.78;24.67;;;12.20;99.90;;;;;;5023588;28;20575;-56
2021/09/18 04:04:55;;;;;;;38.33;25.27;;;12.10;99.90;;;;;;5019617;28;20124;-60
2021/09/18 04:07:20;;;;;;;38.58;25.50;;;12.10;99.90;;;;;;5020444;28;20188;-60
2021/09/18 04:09:46;;;;;;;43.85;25.05;;;12.20;99.90;;;;;;5020586;28;20030;-61
2021/09/18 04:12:12;;;;;;;42.80;25.25;;;12.10;99.90;;;;;;5022097;28;20171;-60
2021/09/18 04:14:37;;;;;;;43.20;25.67;;;12.20;99.90;;;;;;5020941;28;20040;-59
2021/09/18 04:17:03;;;;;;;45.30;25.13;;;12.30;99.90;;;;;;5021858;28;20053;-61
2021/09/18 04:19:28;;;;;;;38.25;25.92;;;12.40;99.90;;;;;;5023232;28;20029;-60
2021/09/18 04:21:54;;;;;;;39.20;24.50;;;12.30;99.90;;;;;;5024070;28;20095;-61
2021/09/18 04:24:19;;;;;;;46.25;26.85;;;12.30;99.90;;;;;;5021186;28;20032;-59
2021/09/18 04:26:45;;;;;;;42.85;26.25;;;12.30;99.90;;;;;;5021936;28;20374;-59
2021/09/18 04:29:11;;;;;;;43.22;26.35;;;12.20;99.90;;;;;;5020724;28;20068;-60
2021/09/18 04:31:36;;;;;;;43.28;25.15;;;12.20;99.90;;;;;;5018420;28;20397;-62
2021/09/18 04:34:02;;;;;;;41.08;25.23;;;12.30;99.90;;;;;;5021882;28;20025;-60
2021/09/18 04:36:27;;;;;;;38.65;25.13;;;12.30;99.90;;;;;;5021651;28;20044;-60
2021/09/18 04:38:53;;;;;;;38.35;24.55;;;12.30;99.90;;;;;;5021900;28;20065;-61
2021/09/18 04:41:18;;;;;;;41.10;25.27;;;12.20;99.90;;;;;;5019772;28;20112;-62
2021/09/18 04:43:44;;;;;;;43.88;27.15;;;12.20;99.90;;;;;;5019319;28;20477;-60
2021/09/18 04:46:10;;;;;;;40.92;27.00;;;12.20;99.90;;;;;;5020739;28;20032;-62
2021/09/18 04:48:35;;;;;;;44.78;26.00;;;12.10;99.90;;;;;;5020449;28;20017;-61
2021/09/18 04:51:02;;;;;;;49.67;27.13;;;12.20;99.90;;;;;;5022593;28;20106;-60
2021/09/18 04:53:27;;;;;;;49.70;28.13;;;12.10;99.90;;;;;;5020845;28;20053;-61
2021/09/18 04:55:54;;;;;;;49.08;27.55;;;12.10;99.90;;;;;;5022222;28;20053;-61
2021/09/18 04:58:19;;;;;;;42.22;25.30;;;12.00;99.90;;;;;;5020466;28;20123;-62
2021/09/18 05:00:45;;;;;;;46.10;28.42;;;12.00;99.90;;;;;;5019148;28;20030;-61
2021/09/18 05:03:11;;;;;;;45.92;27.88;;;12.00;99.90;;;;;;5019078;28;20030;-61
2021/09/18 05:05:36;;;;;;;44.88;27.50;;;12.00;99.90;;;;;;5020317;28;20100;-62
2021/09/18 05:08:04;;;;;;;44.33;27.70;;;11.90;99.90;;;;;;5022060;28;20056;-62
2021/09/18 05:10:29;;;;;;;46.78;28.70;;;11.80;99.90;;;;;;5018359;28;20025;-60
2021/09/18 05:12:55;;;;;;;43.85;26.05;;;11.90;99.90;;;;;;5026180;28;20029;-61
2021/09/18 05:15:20;;;;;;;40.65;25.65;;;11.90;99.90;;;;;;5021723;28;20493;-59
2021/09/18 05:17:46;;;;;;;39.42;24.55;;;11.90;99.90;;;;;;5017884;28;20034;-60
2021/09/18 05:20:12;;;;;;;36.20;23.25;;;12.10;99.90;;;;;;5016979;28;20018;-62
2021/09/18 05:22:37;;;;;;;35.85;23.50;;;12.10;99.90;;;;;;5019572;28;20026;-60
2021/09/18 05:25:05;;;;;;;33.42;21.73;;;12.20;99.90;;;;;;5020744;28;20083;-61
2021/09/18 05:27:30;;;;;;;43.05;22.27;;;12.20;99.90;;;;;;5019754;28;20026;-61
2021/09/18 05:29:56;;;;;;;41.80;25.50;;;12.10;99.90;;;;;;5021683;28;20053;-61
2021/09/18 05:32:22;;;;;;;41.40;24.38;;;12.10;99.90;;;;;;5019856;28;20065;-61
2021/09/18 05:34:47;;;;;;;39.10;24.88;;;12.10;99.90;;;;;;5017943;28;20121;-62
2021/09/18 05:37:13;;;;;;;36.22;24.92;;;12.20;99.90;;;;;;5020576;28;20695;-60
2021/09/18 05:39:38;;;;;;;43.40;25.98;;;12.10;99.90;;;;;;5017822;28;20025;-61
2021/09/18 05:42:04;;;;;;;46.15;25.48;;;12.10;99.90;;;;;;5018790;28;20510;-62
2021/09/18 05:44:29;;;;;;;47.95;27.73;;;12.10;99.90;;;;;;5022274;28;20021;-61
2021/09/18 05:46:55;;;;;;;40.15;25.10;;;12.00;99.90;;;;;;5021922;28;20049;-59
2021/09/18 05:49:21;;;;;;;42.35;27.13;;;12.00;99.90;;;;;;5028837;28;20029;-62
2021/09/18 05:51:46;;;;;;;46.40;27.10;;;12.00;99.90;;;;;;5025381;28;20034;-59
2021/09/18 05:54:12;;;;;;;44.22;27.67;;;12.00;99.90;;;;;;5027650;28;20430;-58
2021/09/18 05:56:37;;;;;;;45.05;27.63;;;12.00;99.90;;;;;;5028839;28;20549;-61
2021/09/18 05:59:03;;;;;;;46.45;28.67;;;12.10;99.90;;;;;;5028385;28;20405;-61
2021/09/18 06:01:29;;;;;;;44.60;29.13;;;12.10;99.90;;;;;;5027829;28;20686;-62
2021/09/18 06:03:55;;;;;;;47.45;28.40;;;12.10;99.90;;;;;;5028353;28;20022;-62
2021/09/18 06:06:21;;;;;;;53.60;29.42;;;12.20;99.90;;;;;;5026382;28;20045;-61
2021/09/18 06:08:50;;;;;;;50.13;30.25;;;12.20;99.90;;;;;;5027782;28;20048;-58
2021/09/18 06:11:16;;;;;;;41.78;27.63;;;12.30;99.90;;;;;;5024178;28;20549;-62
2021/09/18 06:13:42;;;;;;;45.30;28.02;;;12.30;99.90;;;;;;5024554;28;20104;-62
2021/09/18 06:16:07;;;;;;;48.42;28.52;;;12.40;99.90;;;;;;5030067;28;20056;-63
2021/09/18 06:18:33;;;;;;;49.85;28.30;;;12.40;99.90;;;;;;5027891;28;20508;-62
2021/09/18 06:21:00;;;;;;;47.45;28.02;;;12.50;99.90;;;;;;5024231;28;20061;-61
2021/09/18 06:23:27;;;;;;;45.80;30.73;;;12.60;99.90;;;;;;5032270;28;20025;-62
2021/09/18 06:25:53;;;;;;;50.58;29.45;;;12.60;99.90;;;;;;5029871;28;20485;-61
2021/09/18 06:28:18;;;;;;;45.38;27.40;;;12.70;99.90;;;;;;5027302;28;20029;-62
2021/09/18 06:30:45;;;;;;;48.92;29.23;;;12.70;99.90;;;;;;5022055;28;20033;-60
2021/09/18 06:33:10;;;;;;;46.05;29.48;;;12.80;99.90;;;;;;5027830;28;20029;-59
2021/09/18 06:35:36;;;;;;;47.88;31.80;;;12.90;99.90;;;;;;5027270;28;20102;-61
2021/09/18 06:38:01;;;;;;;44.85;28.23;;;13.00;99.90;;;;;;5024668;28;20068;-63
2021/09/18 06:40:27;;;;;;;44.75;29.17;;;13.10;99.90;;;;;;5030431;28;20163;-62
2021/09/18 06:42:53;;;;;;;50.85;27.20;;;13.20;99.90;;;;;;5025582;28;20025;-62
2021/09/18 06:45:18;;;;;;;49.97;27.85;;;13.30;99.90;;;;;;5022992;28;20076;-63
2021/09/18 06:47:44;;;;;;;45.10;29.33;;;13.30;99.90;;;;;;5030371;28;20026;-61
2021/09/18 06:50:10;;;;;;;41.00;27.25;;;13.40;99.90;;;;;;5028315;28;20095;-60
2021/09/18 06:52:36;;;;;;;42.72;25.52;;;13.50;99.90;;;;;;5026215;28;20037;-63
2021/09/18 06:55:03;;;;;;;40.15;25.88;;;13.60;99.90;;;;;;5029633;28;20026;-60
2021/09/18 06:57:28;;;;;;;35.22;23.52;;;13.60;99.90;;;;;;5026170;28;20034;-63
2021/09/18 06:59:54;;;;;;;38.78;24.52;;;13.70;99.90;;;;;;5027581;28;20451;-61
2021/09/18 07:02:19;;;;;;;38.15;23.38;;;13.80;99.90;;;;;;5016873;28;20025;-61
2021/09/18 07:04:45;;;;;;;34.70;21.35;;;13.80;99.90;;;;;;5026975;28;20604;-61
2021/09/18 07:07:10;;;;;;;35.17;23.45;;;13.90;99.90;;;;;;5026770;28;20515;-62
2021/09/18 07:09:36;;;;;;;29.15;21.27;;;14.00;99.90;;;;;;5031376;28;20025;-61
2021/09/18 07:12:03;;;;;;;29.77;20.88;;;14.00;99.90;;;;;;5031369;28;20029;-59
2021/09/18 07:14:28;;;;;;;30.10;22.60;;;14.10;99.90;;;;;;5024083;28;20044;-62
2021/09/18 07:16:54;;;;;;;30.83;23.13;;;14.10;99.90;;;;;;5020616;28;20034;-62
2021/09/18 07:19:19;;;;;;;33.00;22.77;;;14.20;99.90;;;;;;5024564;28;20113;-60
2021/09/18 07:21:45;;;;;;;33.97;22.10;;;14.20;99.90;;;;;;5022138;28;20045;-63
2021/09/18 07:24:11;;;;;;;40.53;24.67;;;14.30;99.90;;;;;;5026884;28;20532;-63
2021/09/18 07:26:36;;;;;;;35.35;22.63;;;14.30;99.90;;;;;;5023626;28;20033;-62
2021/09/18 07:29:04;;;;;;;36.53;25.30;;;14.40;99.90;;;;;;5024239;28;20030;-62
2021/09/18 07:31:30;;;;;;;39.70;25.33;;;14.40;99.90;;;;;;5022101;28;20033;-61
2021/09/18 07:33:55;;;;;;;44.50;28.42;;;14.40;99.90;;;;;;5021594;28;20080;-63
2021/09/18 07:36:21;;;;;;;45.72;29.08;;;14.40;99.90;;;;;;5023238;28;20026;-61
2021/09/18 07:38:47;;;;;;;43.47;27.33;;;14.50;99.90;;;;;;5028807;28;20075;-62
2021/09/18 07:41:13;;;;;;;44.78;30.95;;;14.50;99.90;;;;;;5026771;28;20080;-62
2021/09/18 07:43:38;;;;;;;41.50;27.08;;;14.50;99.90;;;;;;5024710;28;20440;-62
2021/09/18 07:46:04;;;;;;;42.53;27.92;;;14.60;99.90;;;;;;5023953;28;20109;-63
2021/09/18 07:48:30;;;;;;;42.63;28.90;;;14.60;99.90;;;;;;5021227;28;20104;-62
2021/09/18 07:50:57;;;;;;;43.17;26.80;;;14.70;99.90;;;;;;5003914;28;20212;-59
2021/09/18 07:53:23;;;;;;;41.63;28.80;;;14.80;99.90;;;;;;5022762;28;20024;-62
2021/09/18 07:55:48;;;;;;;39.15;26.10;;;14.90;99.90;;;;;;5020794;28;20519;-59
2021/09/18 07:58:15;;;;;;;43.47;26.33;;;15.00;99.90;;;;;;5022412;28;20041;-59
2021/09/18 08:00:40;;;;;;;37.22;25.33;;;15.10;99.90;;;;;;5021913;28;20036;-60
2021/09/18 08:03:06;;;;;;;36.60;23.67;;;15.20;99.90;;;;;;5023884;28;20033;-59
2021/09/18 08:05:31;;;;;;;39.72;24.25;;;15.20;99.90;;;;;;5021191;28;20025;-58
2021/09/18 08:07:57;;;;;;;37.92;25.30;;;15.30;99.90;;;;;;5026698;28;20429;-58
2021/09/18 08:10:23;;;;;;;36.13;24.15;;;15.40;99.90;;;;;;5027140;28;20465;-59
2021/09/18 08:15:28;;;;;;;41.65;26.27;;;15.40;99.90;;;;;;5102599;22;20425;-64
2021/09/18 08:17:53;;;;;;;39.22;24.25;;;15.50;99.90;;;;;;5064287;28;20039;-66
2021/09/18 08:20:20;;;;;;;39.67;25.10;;;15.60;99.90;;;;;;5069071;28;20099;-66
2021/09/18 08:22:49;;;;;;;35.45;23.42;;;15.70;99.90;;;;;;5066254;28;20437;-66
2021/09/18 08:25:16;;;;;;;36.42;23.95;;;15.80;99.90;;;;;;5063173;28;20025;-65
2021/09/18 08:27:41;;;;;;;34.30;22.10;;;15.80;99.90;;;;;;5064524;28;20086;-65
2021/09/18 08:30:08;;;;;;;37.97;23.95;;;15.90;99.90;;;;;;5063917;28;20032;-65
2021/09/18 08:32:34;;;;;;;35.75;24.00;;;16.00;99.90;;;;;;5060636;28;20098;-65
2021/09/18 08:35:00;;;;;;;33.15;22.92;;;16.10;99.90;;;;;;5063508;28;20033;-65
2021/09/18 08:37:27;;;;;;;39.00;26.25;;;16.20;99.90;;;;;;5060224;28;20040;-65
2021/09/18 08:39:52;;;;;;;38.15;24.92;;;16.30;99.90;;;;;;5064222;28;20048;-65
2021/09/18 08:42:18;;;;;;;35.95;24.33;;;16.40;99.90;;;;;;5059275;28;20522;-64
2021/09/18 08:44:44;;;;;;;37.40;24.77;;;16.40;99.90;;;;;;5061791;28;20052;-64
2021/09/18 08:47:13;;;;;;;39.25;25.27;;;16.50;99.90;;;;;;5060009;28;20072;-65
2021/09/18 08:49:40;;;;;;;42.47;25.13;;;16.60;99.90;;;;;;5063750;28;20517;-65
2021/09/18 08:52:06;;;;;;;34.78;23.10;;;16.70;99.90;;;;;;5064566;28;20367;-65
2021/09/18 08:54:33;;;;;;;42.42;24.98;;;16.80;99.90;;;;;;5059959;28;20047;-65
2021/09/18 08:56:58;;;;;;;30.85;21.13;;;16.90;99.90;;;;;;5069500;28;20027;-65
2021/09/18 08:59:24;;;;;;;33.70;23.02;;;17.00;99.90;;;;;;5065473;28;20029;-65
2021/09/18 09:02:19;;;;;;;31.77;23.20;;;17.10;99.90;;;;;;5062837;28;20053;-65
2021/09/18 09:04:45;;;;;;;31.23;22.33;;;17.30;99.90;;;;;;5063747;28;20063;-64
2021/09/18 09:07:14;;;;;;;33.70;23.38;;;17.40;99.90;;;;;;5065570;28;20751;-64
2021/09/18 09:09:58;;;;;;;31.52;22.20;;;17.50;99.90;;;;;;5068855;28;20020;-65
2021/09/18 09:12:30;;;;;;;32.15;22.20;;;17.60;99.90;;;;;;5060550;28;20516;-64
2021/09/18 09:14:57;;;;;;;32.72;22.73;;;17.60;99.90;;;;;;5061976;28;20135;-64
2021/09/18 09:17:25;;;;;;;30.92;21.23;;;17.70;99.90;;;;;;5061879;28;20029;-64
2021/09/18 09:19:52;;;;;;;43.17;24.73;;;17.90;99.90;;;;;;5060855;28;20032;-64
2021/09/18 09:22:44;;;;;;;40.95;24.52;;;17.90;99.90;;;;;;5064815;28;20434;-64
2021/09/18 09:25:33;;;;;;;38.05;25.15;;;18.10;99.90;;;;;;5065257;28;20033;-64
2021/09/18 09:28:25;;;;;;;46.10;29.05;;;18.20;99.90;;;;;;5044509;28;20037;-63
2021/09/18 09:30:51;;;;;;;46.72;29.98;;;18.20;99.90;;;;;;5047660;28;20029;-64
2021/09/18 09:33:17;;;;;;;40.72;28.00;;;18.30;99.90;;;;;;5056602;28;20056;-64
2021/09/18 09:35:43;;;;;;;46.92;28.65;;;18.40;99.90;;;;;;5045886;28;20052;-64
2021/09/18 09:38:10;;;;;;;43.35;28.98;;;18.50;99.90;;;;;;5046709;28;20533;-64
2021/09/18 09:40:48;;;;;;;53.38;31.58;;;18.60;99.90;;;;;;5046569;28;20104;-64
2021/09/18 09:43:16;;;;;;;46.17;29.15;;;18.70;99.90;;;;;;5050320;28;20601;-63
2021/09/18 09:45:42;;;;;;;50.38;32.03;;;18.80;99.90;;;;;;5050582;28;20049;-63
2021/09/18 09:48:13;;;;;;;56.58;33.70;;;18.90;99.90;;;;;;5050640;28;20434;-64
2021/09/18 09:50:41;;;;;;;60.50;36.85;;;19.10;99.90;;;;;;5054324;28;20028;-64
2021/09/18 09:53:25;;;;;;;50.25;32.95;;;19.20;99.90;;;;;;5050267;28;20052;-64
2021/09/18 09:55:51;;;;;;;52.67;34.75;;;19.30;99.90;;;;;;5048759;28;20033;-64
2021/09/18 09:58:17;;;;;;;48.80;32.65;;;19.40;99.90;;;;;;5050381;28;20029;-64
2021/09/18 10:00:50;;;;;;;49.22;31.98;;;19.50;99.90;;;;;;5052400;28;20074;-64
2021/09/18 10:03:21;;;;;;;75.13;43.80;;;19.70;99.90;;;;;;5049946;28;20032;-64
2021/09/18 10:05:46;;;;;;;73.93;44.30;;;19.80;99.90;;;;;;5051408;28;20079;-64
2021/09/18 10:08:14;;;;;;;67.63;40.92;;;19.80;99.90;;;;;;5051016;28;20067;-64
2021/09/18 10:10:40;;;;;;;78.93;46.63;;;19.90;99.90;;;;;;5051978;28;20387;-64
2021/09/18 10:13:07;;;;;;;67.90;41.75;;;20.00;99.90;;;;;;5048287;28;20028;-65
2021/09/18 10:15:33;;;;;;;59.30;35.42;;;20.10;99.90;;;;;;5050828;28;20036;-65
2021/09/18 10:18:01;;;;;;;64.95;39.95;;;20.20;99.90;;;;;;5050793;28;20075;-65
2021/09/18 10:25:40;;;;;;;84.80;50.33;;;20.50;99.90;;;;;;5051090;28;20036;-64
2021/09/18 10:28:17;;;;;;;67.47;41.50;;;20.60;99.90;;;;;;5049009;28;20454;-65
2021/09/18 10:30:49;;;;;;;72.15;41.35;;;20.60;99.90;;;;;;5050859;28;20032;-64
2021/09/18 10:33:29;;;;;;;78.78;44.60;;;20.90;99.90;;;;;;5047285;28;20033;-64
2021/09/18 10:36:03;;;;;;;68.53;44.08;;;20.80;99.90;;;;;;5051211;28;20399;-65
2021/09/18 10:38:31;;;;;;;80.53;46.67;;;20.90;99.90;;;;;;5049458;28;20083;-65
2021/09/18 10:41:00;;;;;;;65.90;38.35;;;20.90;99.90;;;;;;5045862;28;20036;-65
2021/09/18 10:43:53;;;;;;;76.22;44.20;;;21.10;99.90;;;;;;5048254;28;20029;-65
2021/09/18 10:46:48;;;;;;;74.03;42.50;;;21.20;99.90;;;;;;5051196;28;20033;-65
2021/09/18 10:49:31;;;;;;;67.80;38.15;;;21.30;99.90;;;;;;5047265;28;20033;-65
2021/09/18 10:52:29;;;;;;;58.47;33.90;;;21.40;99.90;;;;;;5048852;28;20069;-65
2021/09/18 10:55:10;;;;;;;50.33;29.42;;;21.50;99.90;;;;;;5044615;28;20037;-65
2021/09/18 10:57:35;;;;;;;57.58;32.92;;;21.50;99.90;;;;;;5045221;28;20028;-64
2021/09/18 11:00:03;;;;;;;49.95;29.13;;;21.60;99.90;;;;;;5050187;28;20025;-64
2021/09/18 11:02:34;;;;;;;52.28;31.75;;;21.70;99.90;;;;;;5048511;28;20037;-65
2021/09/18 11:05:01;;;;;;;61.22;28.92;;;21.50;99.90;;;;;;5048926;28;20084;-65
2021/09/18 11:07:45;;;;;;;37.92;23.63;;;21.10;99.90;;;;;;5049889;28;20395;-65
2021/09/18 11:10:36;;;;;;;39.58;24.33;;;20.70;99.90;;;;;;5049378;28;20033;-65
2021/09/18 11:13:11;;;;;;;39.50;24.52;;;20.40;99.90;;;;;;5049377;28;20052;-65
2021/09/18 11:15:41;;;;;;;37.75;22.25;;;20.60;99.90;;;;;;5047368;28;20060;-64
2021/09/18 11:18:26;;;;;;;29.80;20.05;;;21.00;99.90;;;;;;5049211;28;20513;-65
2021/09/18 11:20:51;;;;;;;38.00;22.23;;;21.30;99.90;;;;;;5049072;28;20056;-65
2021/09/18 11:23:32;;;;;;;37.15;22.48;;;21.70;99.90;;;;;;5049531;28;20502;-65
2021/09/18 11:25:58;;;;;;;38.40;24.02;;;21.90;99.90;;;;;;5046865;28;20029;-65
2021/09/18 11:28:34;;;;;;;39.63;22.95;;;22.00;99.90;;;;;;5049629;28;20504;-65
2021/09/18 11:31:01;;;;;;;28.95;18.50;;;22.00;99.90;;;;;;5048488;28;20031;-65
2021/09/18 11:33:26;;;;;;;29.92;16.73;;;22.40;99.90;;;;;;5050154;28;20014;-65
2021/09/18 11:35:55;;;;;;;26.80;16.80;;;22.60;99.90;;;;;;5049581;28;20087;-65
2021/09/18 11:38:26;;;;;;;25.58;17.00;;;22.70;99.90;;;;;;5049178;28;20048;-65
2021/09/18 11:41:11;;;;;;;27.65;18.80;;;23.00;99.90;;;;;;5048650;28;20495;-64
2021/09/18 11:43:38;;;;;;;34.08;22.13;;;22.80;99.90;;;;;;5048913;28;20574;-65
2021/09/18 11:46:04;;;;;;;38.92;22.45;;;22.60;99.90;;;;;;5048577;28;20112;-64
2021/09/18 11:48:31;;;;;;;34.90;20.38;;;22.60;99.90;;;;;;5049196;28;20104;-65
2021/09/18 11:50:59;;;;;;;28.73;17.70;;;22.60;99.90;;;;;;5044493;28;20029;-65
2021/09/18 11:53:25;;;;;;;29.15;18.25;;;22.90;99.90;;;;;;5049586;28;20055;-65
2021/09/18 11:55:52;;;;;;;23.27;16.05;;;23.10;99.90;;;;;;5048336;28;20059;-65
2021/09/18 11:58:22;;;;;;;25.25;15.18;;;23.30;99.90;;;;;;5046766;28;20507;-65
2021/09/18 12:01:03;;;;;;;29.77;18.60;;;23.50;99.90;;;;;;5046508;28;20129;-65
2021/09/18 12:03:34;;;;;;;20.83;14.35;;;23.60;99.90;;;;;;5044436;28;20029;-64
2021/09/18 12:18:28;;;;;;;24.13;17.42;;;24.10;99.90;;;;;;5141329;27;20378;-65
2021/09/18 12:20:57;;;;;;;26.08;14.95;;;23.70;99.90;;;;;;5146254;27;20019;-64
2021/09/18 12:23:23;;;;;;;14.90;11.50;;;23.60;99.90;;;;;;5109177;22;20096;-56
2021/09/18 12:25:54;;;;;;;22.23;16.27;;;23.70;99.90;;;;;;5046834;28;20021;-57
2021/09/18 12:28:19;;;;;;;20.48;13.82;;;24.20;99.90;;;;;;5046217;28;20432;-60
2021/09/18 12:30:45;;;;;;;21.25;14.40;;;24.10;99.90;;;;;;5045259;28;20032;-53
2021/09/18 12:33:16;;;;;;;16.00;11.65;;;23.80;99.90;;;;;;5036111;28;20041;-58
2021/09/18 12:35:47;;;;;;;26.00;14.90;;;24.00;99.90;;;;;;5056599;28;20032;-57
2021/09/18 12:38:15;;;;;;;22.52;14.57;;;23.80;99.90;;;;;;5048759;28;20037;-57
2021/09/18 12:40:47;;;;;;;21.35;12.68;;;23.40;99.90;;;;;;5043384;28;20029;-54
2021/09/18 12:43:22;;;;;;;20.70;14.50;;;23.10;99.90;;;;;;5042536;28;20025;-51
2021/09/18 12:45:49;;;;;;;15.43;11.82;;;22.60;99.90;;;;;;5045542;28;20021;-53
2021/09/18 12:48:24;;;;;;;15.48;10.88;;;22.60;99.90;;;;;;5044847;28;20126;-53
2021/09/18 12:50:52;;;;;;;16.35;13.20;;;22.50;99.90;;;;;;5045084;28;20492;-54